Folsom, NM

1:45 PM MDT on August 27, 2014 (GMT -0600)
Baca Valley | Change Station
CLOSE
Current Station
Personal Weather Station
Location: Des Moines, NM
Elevation: 6645 ft
Nearby Weather Stations

Elev 6645 ft 36.76 °N, 103.83 °W | Updated 14 minutes ago

Clear
Clear
74.0 °F
Feels Like 77 °F
N
4.0
Wind Variable Wind from WSW
Gusts 13.0 mph

Today
High -- | Low -- °F
--% Chance of Precip.
Yesterday
High -- | Low -- °F
Precip. -- in
6:22 AM 7:30 PM
Waxing Crescent, 4% visible
Pressure 29.94 in
Visibility 10.0 miles
Clouds Clear
Heat Index 77 °F
Dew Point 49 °F
Humidity 41%
Rainfall -999.00 in
Snow Depth Not available.
UV 11 out of 12
Pollen 9.50 out of 12
Air Quality Not available.
Flu Activity Not available.
METAR KTAD 271854Z AUTO VRB03KT 10SM CLR 25/11 A3018 RMK AO2 SLP139 T02500106

More Conditions Fewer Conditions

Pressure 29.94 in
Visibility 10.0 miles
Clouds Clear
Heat Index 77 °F
Dew Point 49 °F
Humidity 41%
Rainfall -999.00 in
Snow Depth Not available.
UV 11 out of 12
Pollen 9.50 out of 12
Air Quality Not available.
Flu Activity Not available.
METAR KTAD 271854Z AUTO VRB03KT 10SM CLR 25/11 A3018 RMK AO2 SLP139 T02500106

More Conditions Fewer Conditions

10-Day Weather Forecast

Almanac

Astronomy

Aug. 27, 2014 Rise Set
Actual Time 6:22 AM MDT 7:30 PM MDT
Civil Twilight 5:55 AM MDT 7:57 PM MDT
Nautical Twilight 5:23 AM MDT 8:29 PM MDT
Astronomical Twilight 4:50 AM MDT 9:02 PM MDT
Moon 8:16 AM MDT 8:28 PM MDT
Length of Visible Light 14h 02m
Length of Day
13h 08m
Tomorrow will be 2m 14s shorter.
Waxing Crescent, 4% of the Moon is Illuminated
Today
Waxing Crescent
Sep 2
First Quarter
Sep 8
Full
Sep 15
Last Quarter
Sep 24
New

Today's Extremes

State Highs State Lows

Community

WunderPhotos

Upload Photos

1,747,771 photos uploaded!

Nearby

Snow Depth

Station Depth Elevation
North Costilla 0 in 10600 ft
Tolby 0 in 10180 ft
Gallegos Peak 0 in 9800 ft
Wesner Springs 1 in 11120 ft
Elk Cabin 127 in 8210 ft

Earthquake Activity

City Distance Mag. Time & Date
No recent earthquake activity has been reported nearby.
Minimum magnitude displayed is 2.5.

Coastal Water Temperatures

Place Temperature
No Stations Reporting

Nearby Weather Stations